createdAt,value
2018-11-29T00:02:07.321Z,99305.00
2018-11-29T00:04:35.840Z,99320.00
2018-11-29T00:07:04.220Z,99320.00
2018-11-29T00:09:38.524Z,99325.00
2018-11-29T00:12:07.393Z,99328.00
2018-11-29T00:14:36.573Z,99318.00
2018-11-29T00:17:04.838Z,99321.00
2018-11-29T00:19:33.088Z,99326.00
2018-11-29T00:22:01.342Z,99318.00
2018-11-29T00:24:29.663Z,99309.00
2018-11-29T00:26:57.922Z,99324.00
2018-11-29T00:29:26.293Z,99320.00
2018-11-29T00:31:54.586Z,99309.00
2018-11-29T00:34:22.850Z,99291.00
2018-11-29T00:36:51.130Z,99289.00
2018-11-29T00:39:19.465Z,99300.00
2018-11-29T00:41:47.711Z,99275.00
2018-11-29T00:44:15.967Z,99272.00
2018-11-29T00:46:44.226Z,99274.00
2018-11-29T00:49:12.506Z,99273.00
2018-11-29T00:51:40.801Z,99256.00
2018-11-29T00:54:09.045Z,99277.00
2018-11-29T00:56:37.348Z,99271.00
2018-11-29T00:59:05.602Z,99279.00
2018-11-29T01:01:33.896Z,99269.00
2018-11-29T01:04:02.141Z,99276.00
2018-11-29T01:06:30.392Z,99282.00
2018-11-29T01:08:58.665Z,99274.00
2018-11-29T01:11:26.943Z,99285.00
2018-11-29T01:13:55.209Z,99279.00
2018-11-29T01:16:23.482Z,99289.00
2018-11-29T01:18:51.741Z,99276.00
2018-11-29T01:21:19.985Z,99289.00
2018-11-29T01:23:48.306Z,99294.00
2018-11-29T01:26:16.568Z,99289.00
2018-11-29T01:28:44.854Z,99272.00
2018-11-29T01:31:13.117Z,99285.00
2018-11-29T01:33:41.378Z,99262.00
2018-11-29T01:36:09.649Z,99264.00
2018-11-29T01:38:37.918Z,99266.00
2018-11-29T01:41:06.182Z,99262.00
2018-11-29T01:43:34.471Z,99249.00
2018-11-29T01:46:02.781Z,99259.00
2018-11-29T01:48:31.090Z,99264.00
2018-11-29T01:50:59.346Z,99274.00
2018-11-29T01:53:27.625Z,99260.00
2018-11-29T01:55:55.892Z,99263.00
2018-11-29T01:58:24.145Z,99260.00
2018-11-29T02:00:52.458Z,99255.00
2018-11-29T02:03:20.729Z,99270.00
2018-11-29T02:05:49.055Z,99260.00
2018-11-29T02:08:17.322Z,99260.00
2018-11-29T02:10:51.200Z,99236.00
2018-11-29T02:13:20.052Z,99261.00
2018-11-29T02:15:48.316Z,99261.00
2018-11-29T02:18:16.585Z,99255.00
2018-11-29T02:20:44.832Z,99254.00
2018-11-29T02:23:13.127Z,99262.00
2018-11-29T02:25:41.382Z,99250.00
2018-11-29T02:28:09.649Z,99249.00
2018-11-29T02:30:37.938Z,99249.00
2018-11-29T02:33:06.197Z,99248.00
2018-11-29T02:35:34.510Z,99245.00
2018-11-29T02:38:03.272Z,99233.00
2018-11-29T02:40:31.542Z,99239.00
2018-11-29T02:42:59.781Z,99239.00
2018-11-29T02:45:28.046Z,99242.00
2018-11-29T02:47:56.291Z,99239.00
2018-11-29T02:50:24.554Z,99248.00
2018-11-29T02:52:52.814Z,99234.00
2018-11-29T02:55:21.089Z,99232.00
2018-11-29T02:57:49.333Z,99220.00
2018-11-29T03:00:18.241Z,99226.00
2018-11-29T03:02:46.494Z,99219.00
2018-11-29T03:05:15.101Z,99213.00
2018-11-29T03:07:43.353Z,99226.00
2018-11-29T03:10:13.366Z,99232.00
2018-11-29T03:12:41.959Z,99228.00
2018-11-29T03:15:13.052Z,99238.00
2018-11-29T03:17:41.354Z,99229.00
2018-11-29T03:20:10.749Z,99232.00
2018-11-29T03:22:39.009Z,99222.00
2018-11-29T03:25:10.379Z,99236.00
2018-11-29T03:27:38.634Z,99229.00
2018-11-29T03:30:10.395Z,99243.00
2018-11-29T03:32:38.697Z,99232.00
2018-11-29T03:35:07.168Z,99223.00
2018-11-29T03:37:35.798Z,99230.00
2018-11-29T03:40:05.684Z,99231.00
2018-11-29T03:42:34.094Z,99222.00
2018-11-29T03:45:02.350Z,99224.00
2018-11-29T03:47:30.627Z,99216.00
2018-11-29T03:49:58.920Z,99218.00
2018-11-29T03:52:27.231Z,99219.00
2018-11-29T03:54:55.505Z,99228.00
2018-11-29T03:57:23.979Z,99231.00
2018-11-29T03:59:52.239Z,99231.00
2018-11-29T04:02:20.503Z,99221.00
2018-11-29T04:04:48.756Z,99213.00
2018-11-29T04:07:17.074Z,99202.00
2018-11-29T04:09:45.354Z,99204.00
2018-11-29T04:12:13.628Z,99202.00
2018-11-29T04:14:41.900Z,99200.00
2018-11-29T04:17:10.185Z,99203.00
2018-11-29T04:19:38.501Z,99202.00
2018-11-29T04:22:06.828Z,99196.00
2018-11-29T04:24:35.125Z,99194.00
2018-11-29T04:27:03.387Z,99171.00
2018-11-29T04:29:31.674Z,99182.00
2018-11-29T04:31:59.960Z,99183.00
2018-11-29T04:34:28.217Z,99179.00
2018-11-29T04:36:56.494Z,99183.00
2018-11-29T04:39:24.991Z,99180.00
2018-11-29T04:41:53.273Z,99158.00
2018-11-29T04:44:21.523Z,99170.00
2018-11-29T04:46:50.674Z,99183.00
2018-11-29T04:49:18.923Z,99190.00
2018-11-29T04:51:47.333Z,99177.00
2018-11-29T04:54:15.561Z,99174.00
2018-11-29T04:56:43.910Z,99171.00
2018-11-29T04:59:12.184Z,99168.00
2018-11-29T05:01:40.504Z,99169.00
2018-11-29T05:04:08.793Z,99171.00
2018-11-29T05:06:37.066Z,99175.00
2018-11-29T05:09:08.901Z,99172.00
2018-11-29T05:11:37.563Z,99175.00
2018-11-29T05:14:05.907Z,99170.00
2018-11-29T05:16:34.214Z,99163.00
2018-11-29T05:19:02.465Z,99165.00
2018-11-29T05:21:30.776Z,99184.00
2018-11-29T05:23:59.051Z,99172.00
2018-11-29T05:26:27.308Z,99157.00
2018-11-29T05:28:55.583Z,99159.00
2018-11-29T05:31:23.862Z,99164.00
2018-11-29T05:33:52.144Z,99180.00
2018-11-29T05:36:20.451Z,99182.00
2018-11-29T05:38:48.692Z,99189.00
2018-11-29T05:41:17.007Z,99185.00
2018-11-29T05:43:45.261Z,99186.00
2018-11-29T05:46:14.697Z,99183.00
2018-11-29T05:48:43.071Z,99182.00
2018-11-29T05:51:11.389Z,99175.00
2018-11-29T05:53:39.637Z,99182.00
2018-11-29T05:56:07.959Z,99177.00
2018-11-29T05:58:36.253Z,99183.00
2018-11-29T06:01:08.238Z,99187.00
2018-11-29T06:03:36.494Z,99186.00
2018-11-29T06:06:04.818Z,99192.00
2018-11-29T06:08:33.299Z,99210.00
2018-11-29T06:11:01.557Z,99204.00
2018-11-29T06:13:29.813Z,99210.00
2018-11-29T06:15:58.449Z,99213.00
2018-11-29T06:18:26.724Z,99206.00
2018-11-29T06:20:55.029Z,99197.00
2018-11-29T06:23:23.286Z,99206.00
2018-11-29T06:25:51.687Z,99193.00
2018-11-29T06:28:19.983Z,99194.00
2018-11-29T06:30:48.259Z,99191.00
2018-11-29T06:33:16.535Z,99194.00
2018-11-29T06:35:44.813Z,99185.00
2018-11-29T06:38:13.067Z,99190.00
2018-11-29T06:40:41.346Z,99175.00
2018-11-29T06:43:09.618Z,99183.00
2018-11-29T06:45:37.963Z,99181.00
2018-11-29T06:48:06.316Z,99176.00
2018-11-29T06:50:34.585Z,99175.00
2018-11-29T06:53:02.880Z,99175.00
2018-11-29T06:55:31.157Z,99168.00
2018-11-29T06:57:59.428Z,99162.00
2018-11-29T07:00:28.386Z,99173.00
2018-11-29T07:02:56.672Z,99159.00
2018-11-29T07:05:24.936Z,99181.00
2018-11-29T07:07:53.204Z,99175.00
2018-11-29T07:10:26.786Z,99160.00
2018-11-29T07:12:55.068Z,99172.00
2018-11-29T07:15:23.373Z,99171.00
2018-11-29T07:17:51.662Z,99157.00
2018-11-29T07:20:19.939Z,99162.00
2018-11-29T07:22:48.206Z,99155.00
2018-11-29T07:25:16.530Z,99158.00
2018-11-29T07:27:44.790Z,99153.00
2018-11-29T07:30:16.751Z,99156.00
2018-11-29T07:32:45.246Z,99153.00
2018-11-29T07:35:16.859Z,99147.00
2018-11-29T07:37:45.157Z,99147.00
2018-11-29T07:40:17.260Z,99145.00
2018-11-29T07:42:46.674Z,99141.00
2018-11-29T07:45:15.989Z,99134.00
2018-11-29T07:47:44.526Z,99140.00
2018-11-29T07:50:14.926Z,99143.00
2018-11-29T07:52:43.193Z,99146.00
2018-11-29T07:55:15.519Z,99141.00
2018-11-29T07:57:44.146Z,99132.00
2018-11-29T08:00:13.332Z,99146.00
2018-11-29T08:02:41.614Z,99141.00
2018-11-29T08:05:10.893Z,99135.00
2018-11-29T08:07:39.764Z,99124.00
2018-11-29T08:10:12.044Z,99115.00
2018-11-29T08:12:40.370Z,99112.00
2018-11-29T08:15:09.921Z,99112.00
2018-11-29T08:17:38.306Z,99116.00
2018-11-29T08:20:21.857Z,99110.00
2018-11-29T08:22:50.147Z,99101.00
2018-11-29T08:25:18.411Z,99094.00
2018-11-29T08:27:46.749Z,99104.00
2018-11-29T08:30:15.701Z,99103.00
2018-11-29T08:32:43.952Z,99101.00
2018-11-29T08:35:13.130Z,99103.00
2018-11-29T08:37:42.529Z,99107.00
2018-11-29T08:40:12.302Z,99104.00
2018-11-29T08:42:40.695Z,99096.00
2018-11-29T08:45:10.050Z,99094.00
2018-11-29T08:47:38.367Z,99092.00
2018-11-29T08:50:09.990Z,99102.00
2018-11-29T08:52:38.514Z,99095.00
2018-11-29T08:55:09.334Z,99098.00
2018-11-29T08:57:37.659Z,99092.00
2018-11-29T09:00:11.394Z,99088.00
2018-11-29T09:02:39.675Z,99076.00
2018-11-29T09:05:08.767Z,99074.00
2018-11-29T09:07:37.048Z,99057.00
2018-11-29T09:10:08.021Z,99059.00
2018-11-29T09:12:36.283Z,99057.00
2018-11-29T09:15:05.422Z,99060.00
2018-11-29T09:17:33.701Z,99047.00
2018-11-29T09:20:01.991Z,99041.00
2018-11-29T09:22:30.279Z,99036.00
2018-11-29T09:24:58.562Z,99041.00
2018-11-29T09:27:26.878Z,99039.00
2018-11-29T09:29:55.158Z,99030.00
2018-11-29T09:32:23.450Z,99054.00
2018-11-29T09:34:51.736Z,99058.00
2018-11-29T09:37:20.022Z,99055.00
2018-11-29T09:39:48.278Z,99047.00
2018-11-29T09:42:16.548Z,99051.00
2018-11-29T09:44:44.860Z,99047.00
2018-11-29T09:47:13.155Z,99035.00
2018-11-29T09:49:41.471Z,99029.00
2018-11-29T09:52:09.787Z,99050.00
2018-11-29T09:54:38.070Z,99050.00
2018-11-29T09:57:06.522Z,99052.00
2018-11-29T09:59:34.812Z,99052.00
2018-11-29T10:02:03.074Z,99059.00
2018-11-29T10:04:31.390Z,99055.00
2018-11-29T10:06:59.784Z,99049.00
2018-11-29T10:09:28.054Z,99031.00
2018-11-29T10:11:56.330Z,99030.00
2018-11-29T10:14:24.627Z,99035.00
2018-11-29T10:16:52.926Z,99013.00
2018-11-29T10:19:21.223Z,99006.00
2018-11-29T10:21:49.493Z,99001.00
2018-11-29T10:24:17.797Z,98989.00
2018-11-29T10:26:46.070Z,98991.00
2018-11-29T10:29:14.334Z,98996.00
2018-11-29T10:31:42.616Z,98988.00
2018-11-29T10:34:10.919Z,98998.00
2018-11-29T10:36:39.204Z,99008.00
2018-11-29T10:39:08.154Z,99002.00
2018-11-29T10:41:36.509Z,99012.00
2018-11-29T10:44:05.166Z,99009.00
2018-11-29T10:46:33.440Z,98987.00
2018-11-29T10:49:01.721Z,98975.00
2018-11-29T10:51:30.034Z,98966.00
2018-11-29T10:53:58.250Z,98968.00
2018-11-29T10:56:26.515Z,98969.00
2018-11-29T10:58:54.782Z,98968.00
2018-11-29T11:01:28.541Z,98976.00
2018-11-29T11:03:56.845Z,98969.00
2018-11-29T11:06:25.126Z,98965.00
2018-11-29T11:08:53.430Z,98961.00
2018-11-29T11:11:21.713Z,98950.00
2018-11-29T11:13:49.984Z,98947.00
2018-11-29T11:16:18.275Z,98940.00
2018-11-29T11:18:46.571Z,98950.00
2018-11-29T11:21:14.874Z,98949.00
2018-11-29T11:23:43.149Z,98943.00
2018-11-29T11:26:11.440Z,98931.00
2018-11-29T11:28:39.728Z,98924.00
2018-11-29T11:31:07.995Z,98922.00
2018-11-29T11:33:36.275Z,98934.00
2018-11-29T11:36:04.723Z,98923.00
2018-11-29T11:38:32.981Z,98922.00
2018-11-29T11:41:01.250Z,98919.00
2018-11-29T11:43:29.527Z,98910.00
2018-11-29T11:45:57.785Z,98909.00
2018-11-29T11:48:26.083Z,98911.00
2018-11-29T11:50:54.358Z,98912.00
2018-11-29T11:53:22.649Z,98918.00
2018-11-29T11:55:53.672Z,98917.00
2018-11-29T11:58:19.214Z,98916.00
2018-11-29T12:00:47.516Z,98904.00
2018-11-29T12:03:16.415Z,98888.00
2018-11-29T12:05:44.692Z,98891.00
2018-11-29T12:08:12.963Z,98882.00
2018-11-29T12:10:42.378Z,98879.00
2018-11-29T12:13:10.652Z,98867.00
2018-11-29T12:15:38.992Z,98877.00
2018-11-29T12:18:10.470Z,98876.00
2018-11-29T12:20:38.787Z,98860.00
2018-11-29T12:23:07.485Z,98860.00
2018-11-29T12:25:35.737Z,98852.00
2018-11-29T12:28:03.998Z,98840.00
2018-11-29T12:30:34.786Z,98831.00
2018-11-29T12:33:04.083Z,98827.00
2018-11-29T12:35:32.447Z,98826.00
2018-11-29T12:38:00.710Z,98816.00
2018-11-29T12:40:28.982Z,98799.00
2018-11-29T12:42:57.272Z,98803.00
2018-11-29T12:45:25.490Z,98794.00
2018-11-29T12:47:53.733Z,98799.00
2018-11-29T12:50:24.938Z,98803.00
2018-11-29T12:52:53.265Z,98800.00
2018-11-29T12:55:22.575Z,98785.00
2018-11-29T13:00:20.025Z,98783.00
2018-11-29T13:02:50.218Z,98776.00
2018-11-29T13:03:02.498Z,98779.00
2018-11-29T13:05:18.473Z,98777.00
2018-11-29T13:07:46.758Z,98783.00
2018-11-29T13:10:15.879Z,98781.00
2018-11-29T13:12:44.146Z,98781.00
2018-11-29T13:15:14.695Z,98776.00
2018-11-29T13:17:42.868Z,98770.00
2018-11-29T13:20:12.203Z,98766.00
2018-11-29T13:22:40.457Z,98763.00
2018-11-29T13:25:10.434Z,98756.00
2018-11-29T13:27:38.687Z,98764.00
2018-11-29T13:30:10.230Z,98763.00
2018-11-29T13:32:38.531Z,98756.00
2018-11-29T13:35:12.847Z,98755.00
2018-11-29T13:37:41.095Z,98751.00
2018-11-29T13:40:10.786Z,98741.00
2018-11-29T13:42:39.130Z,98742.00
2018-11-29T13:45:08.961Z,98739.00
2018-11-29T13:47:37.519Z,98731.00
2018-11-29T13:50:08.335Z,98730.00
2018-11-29T13:52:36.614Z,98727.00
2018-11-29T13:55:06.122Z,98725.00
2018-11-29T13:57:34.490Z,98731.00
2018-11-29T14:00:02.743Z,98718.00
2018-11-29T14:02:31.086Z,98719.00
2018-11-29T14:04:59.338Z,98725.00
2018-11-29T14:07:27.586Z,98742.00
2018-11-29T14:09:55.891Z,98738.00
2018-11-29T14:12:24.222Z,98738.00
2018-11-29T14:14:52.466Z,98740.00
2018-11-29T14:17:20.840Z,98728.00
2018-11-29T14:19:49.145Z,98738.00
2018-11-29T14:22:17.494Z,98728.00
2018-11-29T14:24:45.778Z,98738.00
2018-11-29T14:27:14.017Z,98732.00
2018-11-29T14:29:42.316Z,98746.00
2018-11-29T14:32:10.644Z,98735.00
2018-11-29T14:34:38.810Z,98723.00
2018-11-29T14:37:07.083Z,98730.00
2018-11-29T14:39:35.372Z,98743.00
2018-11-29T14:42:03.633Z,98756.00
2018-11-29T14:44:31.880Z,98745.00
2018-11-29T14:47:00.641Z,98753.00
2018-11-29T14:49:28.979Z,98747.00
2018-11-29T14:51:57.245Z,98753.00
2018-11-29T14:54:25.562Z,98747.00
2018-11-29T14:56:53.920Z,98750.00
2018-11-29T14:59:22.234Z,98738.00
2018-11-29T15:01:50.498Z,98734.00
2018-11-29T15:04:18.754Z,98730.00
2018-11-29T15:06:47.099Z,98726.00
2018-11-29T15:09:15.382Z,98726.00
2018-11-29T15:11:43.650Z,98725.00
2018-11-29T15:14:11.916Z,98721.00
2018-11-29T15:16:40.281Z,98712.00
2018-11-29T15:19:08.564Z,98728.00
2018-11-29T15:21:36.938Z,98722.00
2018-11-29T15:24:05.522Z,98723.00
2018-11-29T15:29:08.410Z,98723.00
2018-11-29T15:31:36.874Z,98728.00
2018-11-29T15:34:12.817Z,98730.00
2018-11-29T15:36:45.733Z,98730.00
2018-11-29T15:39:15.242Z,98718.00
2018-11-29T15:41:43.523Z,98724.00
2018-11-29T15:44:11.794Z,98717.00
2018-11-29T15:46:40.099Z,98709.00
2018-11-29T15:49:08.346Z,98702.00
2018-11-29T15:54:39.749Z,98705.00
2018-11-29T15:57:08.623Z,98702.00
2018-11-29T15:59:37.560Z,98709.00
2018-11-29T16:02:06.425Z,98709.00
2018-11-29T16:04:35.329Z,98709.00
2018-11-29T16:07:04.275Z,98694.00
2018-11-29T16:09:33.239Z,98701.00
2018-11-29T16:12:02.105Z,98693.00
2018-11-29T16:14:30.999Z,98690.00
2018-11-29T16:17:00.039Z,98691.00
2018-11-29T16:19:28.975Z,98693.00
2018-11-29T16:21:57.889Z,98695.00
2018-11-29T16:24:26.848Z,98704.00
2018-11-29T16:26:56.080Z,98693.00
2018-11-29T16:29:25.013Z,98699.00
2018-11-29T16:31:53.880Z,98705.00
2018-11-29T16:34:23.870Z,98702.00
2018-11-29T16:36:51.904Z,98704.00
2018-11-29T16:39:20.761Z,98697.00
2018-11-29T16:41:49.680Z,98687.00
2018-11-29T16:44:18.519Z,98689.00
2018-11-29T16:46:48.393Z,98688.00
2018-11-29T16:49:17.304Z,98695.00
2018-11-29T16:51:46.177Z,98704.00
2018-11-29T16:54:15.216Z,98702.00
2018-11-29T16:56:44.177Z,98704.00
2018-11-29T16:59:13.083Z,98712.00
2018-11-29T17:01:41.955Z,98705.00
2018-11-29T17:04:10.886Z,98701.00
2018-11-29T17:06:39.796Z,98700.00
2018-11-29T17:09:10.041Z,98690.00
2018-11-29T17:11:38.883Z,98686.00
2018-11-29T17:14:07.764Z,98682.00
2018-11-29T17:16:36.629Z,98695.00
2018-11-29T17:19:05.569Z,98688.00
2018-11-29T17:21:34.363Z,98700.00
2018-11-29T17:24:03.265Z,98697.00
2018-11-29T17:26:32.295Z,98701.00
2018-11-29T17:29:01.174Z,98681.00
2018-11-29T17:31:30.039Z,98674.00
2018-11-29T17:33:58.945Z,98668.00
2018-11-29T17:36:27.825Z,98668.00
2018-11-29T17:38:56.824Z,98659.00
2018-11-29T17:41:25.695Z,98652.00
2018-11-29T17:43:54.619Z,98650.00
2018-11-29T17:46:23.422Z,98635.00
2018-11-29T17:48:52.259Z,98626.00
2018-11-29T17:51:21.256Z,98622.00
2018-11-29T17:53:50.203Z,98626.00
2018-11-29T17:56:19.035Z,98637.00
2018-11-29T17:58:47.885Z,98645.00
2018-11-29T18:01:16.990Z,98647.00
2018-11-29T18:03:45.881Z,98636.00
2018-11-29T18:06:14.937Z,98627.00
2018-11-29T18:08:43.759Z,98629.00
2018-11-29T18:11:12.659Z,98618.00
2018-11-29T18:13:42.395Z,98612.00
2018-11-29T18:16:11.354Z,98609.00
2018-11-29T18:18:40.180Z,98614.00
2018-11-29T18:21:09.086Z,98605.00
2018-11-29T18:23:38.068Z,98581.00
2018-11-29T18:26:07.105Z,98559.00
2018-11-29T18:28:36.110Z,98604.00
2018-11-29T18:31:04.915Z,98636.00
2018-11-29T18:33:33.929Z,98639.00
2018-11-29T18:36:02.831Z,98647.00
2018-11-29T18:38:31.614Z,98629.00
2018-11-29T18:41:00.609Z,98621.00
2018-11-29T18:43:29.499Z,98601.00
2018-11-29T18:45:58.325Z,98602.00
2018-11-29T18:48:27.247Z,98615.00
2018-11-29T18:50:56.167Z,98651.00
2018-11-29T18:53:25.077Z,98678.00
2018-11-29T18:55:54.154Z,98644.00
2018-11-29T18:58:23.096Z,98655.00
2018-11-29T19:00:51.997Z,98661.00
2018-11-29T19:03:20.937Z,98688.00
2018-11-29T19:05:49.860Z,98699.00
2018-11-29T19:08:18.736Z,98703.00
2018-11-29T19:10:47.682Z,98720.00
2018-11-29T19:13:16.606Z,98708.00
2018-11-29T19:15:45.417Z,98724.00
2018-11-29T19:18:14.262Z,98719.00
2018-11-29T19:20:43.142Z,98711.00
2018-11-29T19:23:12.104Z,98688.00
2018-11-29T19:25:40.923Z,98689.00
2018-11-29T19:28:09.861Z,98697.00
2018-11-29T19:30:39.064Z,98669.00
2018-11-29T19:33:17.475Z,98658.00
2018-11-29T19:35:47.262Z,98628.00
2018-11-29T19:38:16.148Z,98625.00
2018-11-29T19:40:45.007Z,98601.00
2018-11-29T19:43:13.933Z,98602.00
2018-11-29T19:45:42.860Z,98638.00
2018-11-29T19:48:12.067Z,98631.00
2018-11-29T19:50:40.937Z,98619.00
2018-11-29T19:53:18.021Z,98631.00
2018-11-29T19:55:47.311Z,98629.00
2018-11-29T19:58:16.333Z,98631.00
2018-11-29T20:00:45.214Z,98639.00
2018-11-29T20:03:14.051Z,98620.00
2018-11-29T20:05:43.019Z,98631.00
2018-11-29T20:08:11.959Z,98631.00
2018-11-29T20:10:40.917Z,98622.00
2018-11-29T20:13:11.203Z,98614.00
2018-11-29T20:15:41.588Z,98625.00
2018-11-29T20:18:11.789Z,98610.00
2018-11-29T20:20:40.656Z,98606.00
2018-11-29T20:23:10.490Z,98613.00
2018-11-29T20:25:39.788Z,98621.00
2018-11-29T20:28:08.737Z,98598.00
2018-11-29T20:30:37.592Z,98598.00
2018-11-29T20:33:06.827Z,98596.00
2018-11-29T20:35:35.777Z,98597.00
2018-11-29T20:38:04.609Z,98590.00
2018-11-29T20:40:34.972Z,98585.00
2018-11-29T20:43:03.907Z,98592.00
2018-11-29T20:45:38.049Z,98603.00
2018-11-29T20:48:13.492Z,98591.00
2018-11-29T20:50:42.359Z,98589.00
2018-11-29T20:53:12.607Z,98597.00
2018-11-29T20:55:41.499Z,98597.00
2018-11-29T20:58:10.351Z,98589.00
2018-11-29T21:00:39.318Z,98585.00
2018-11-29T21:03:08.908Z,98596.00
2018-11-29T21:05:39.519Z,98578.00
2018-11-29T21:08:09.401Z,98559.00
2018-11-29T21:10:38.345Z,98567.00
2018-11-29T21:13:07.744Z,98556.00
2018-11-29T21:15:40.597Z,98549.00
2018-11-29T21:18:10.754Z,98562.00
2018-11-29T21:20:40.523Z,98545.00
2018-11-29T21:23:10.905Z,98545.00
2018-11-29T21:25:39.869Z,98555.00
2018-11-29T21:28:08.732Z,98557.00
2018-11-29T21:30:37.639Z,98536.00
2018-11-29T21:33:07.104Z,98535.00
2018-11-29T21:35:35.975Z,98542.00
2018-11-29T21:38:12.809Z,98544.00
2018-11-29T21:40:43.199Z,98547.00
2018-11-29T21:43:12.109Z,98551.00
2018-11-29T21:45:40.935Z,98553.00
2018-11-29T21:48:10.031Z,98546.00
2018-11-29T21:50:38.944Z,98556.00
2018-11-29T21:53:08.002Z,98567.00
2018-11-29T21:55:36.839Z,98579.00
2018-11-29T21:58:05.822Z,98582.00
2018-11-29T22:00:34.697Z,98589.00
2018-11-29T22:03:03.568Z,98591.00
2018-11-29T22:05:32.437Z,98604.00
2018-11-29T22:08:01.294Z,98608.00
2018-11-29T22:10:30.186Z,98607.00
2018-11-29T22:12:59.010Z,98619.00
2018-11-29T22:15:27.919Z,98622.00
2018-11-29T22:18:24.831Z,98609.00
2018-11-29T22:20:55.905Z,98614.00
2018-11-29T22:23:24.771Z,98612.00
2018-11-29T22:25:54.372Z,98610.00
2018-11-29T22:28:23.279Z,98612.00
2018-11-29T22:30:52.117Z,98603.00
2018-11-29T22:33:21.010Z,98608.00
2018-11-29T22:35:49.917Z,98613.00
2018-11-29T22:38:18.807Z,98584.00
2018-11-29T22:40:47.646Z,98589.00
2018-11-29T22:43:16.543Z,98589.00
2018-11-29T22:45:45.485Z,98611.00
2018-11-29T22:48:14.451Z,98608.00
2018-11-29T22:50:43.368Z,98605.00
2018-11-29T22:53:12.207Z,98593.00
2018-11-29T22:55:41.211Z,98580.00
2018-11-29T22:58:10.191Z,98574.00
2018-11-29T23:00:53.384Z,98581.00
2018-11-29T23:03:22.459Z,98576.00
2018-11-29T23:05:51.381Z,98579.00
2018-11-29T23:08:20.301Z,98582.00
2018-11-29T23:10:49.157Z,98590.00
2018-11-29T23:13:18.119Z,98588.00
2018-11-29T23:15:47.073Z,98586.00
2018-11-29T23:18:15.933Z,98568.00
2018-11-29T23:20:44.812Z,98567.00
2018-11-29T23:23:13.677Z,98563.00
2018-11-29T23:25:42.609Z,98563.00
2018-11-29T23:28:11.504Z,98551.00
2018-11-29T23:30:40.339Z,98555.00
2018-11-29T23:33:09.260Z,98566.00
2018-11-29T23:35:38.132Z,98559.00
2018-11-29T23:38:06.996Z,98552.00
2018-11-29T23:40:35.965Z,98558.00
2018-11-29T23:43:05.032Z,98536.00
2018-11-29T23:45:33.886Z,98541.00
2018-11-29T23:48:02.760Z,98550.00
2018-11-29T23:50:31.701Z,98555.00
2018-11-29T23:53:00.600Z,98552.00
2018-11-29T23:55:29.469Z,98543.00
2018-11-29T23:57:58.296Z,98551.00
